createdAt,value
2023-01-04T00:01:59.208Z,100.00
2023-01-04T00:07:01.604Z,100.00
2023-01-04T00:12:04.116Z,100.00
2023-01-04T00:17:06.425Z,100.00
2023-01-04T00:22:08.589Z,100.00
2023-01-04T00:27:10.873Z,100.00
2023-01-04T00:32:13.243Z,100.00
2023-01-04T00:37:15.599Z,100.00
2023-01-04T00:42:17.788Z,100.00
2023-01-04T00:47:19.973Z,100.00
2023-01-04T00:52:22.139Z,100.00
2023-01-04T00:57:24.366Z,100.00
2023-01-04T01:02:26.724Z,100.00
2023-01-04T01:07:29.204Z,100.00
2023-01-04T01:12:31.559Z,100.00
2023-01-04T01:17:35.063Z,100.00
2023-01-04T01:22:37.248Z,100.00
2023-01-04T01:27:39.616Z,100.00
2023-01-04T01:32:41.834Z,100.00
2023-01-04T01:37:44.086Z,100.00
2023-01-04T01:42:46.347Z,100.00
2023-01-04T01:47:51.093Z,100.00
2023-01-04T01:52:55.034Z,100.00
2023-01-04T01:57:58.968Z,100.00
2023-01-04T02:03:11.617Z,100.00
2023-01-04T02:08:15.362Z,100.00
2023-01-04T02:13:25.387Z,100.00
2023-01-04T02:18:34.506Z,100.00
2023-01-04T02:23:46.002Z,100.00
2023-01-04T02:29:09.991Z,100.00
2023-01-04T02:34:59.184Z,100.00
2023-01-04T02:40:21.319Z,100.00
2023-01-04T02:45:29.707Z,100.00
2023-01-04T02:50:36.639Z,100.00
2023-01-04T02:56:07.699Z,100.00
2023-01-04T03:01:35.303Z,100.00
2023-01-04T03:06:53.024Z,100.00
2023-01-04T03:12:32.651Z,100.00
2023-01-04T03:17:45.723Z,100.00
2023-01-04T03:23:14.966Z,100.00
2023-01-04T03:28:39.535Z,100.00
2023-01-04T03:34:00.632Z,100.00
2023-01-04T03:39:37.063Z,100.00
2023-01-04T03:45:11.929Z,100.00
2023-01-04T03:50:23.213Z,100.00
2023-01-04T03:55:29.685Z,100.00
2023-01-04T04:00:33.311Z,100.00
2023-01-04T04:06:00.439Z,100.00
2023-01-04T04:11:22.081Z,100.00
2023-01-04T04:16:41.194Z,100.00
2023-01-04T04:21:43.432Z,100.00
2023-01-04T04:26:45.929Z,100.00
2023-01-04T04:31:48.441Z,100.00
2023-01-04T04:36:50.828Z,100.00
2023-01-04T04:41:53.007Z,100.00
2023-01-04T04:46:55.328Z,100.00
2023-01-04T04:51:57.677Z,100.00
2023-01-04T04:56:59.857Z,100.00
2023-01-04T05:02:02.447Z,100.00
2023-01-04T05:07:10.651Z,100.00
2023-01-04T05:12:32.944Z,100.00
2023-01-04T05:17:35.287Z,100.00
2023-01-04T05:22:37.491Z,100.00
2023-01-04T05:27:39.982Z,100.00
2023-01-04T05:32:42.164Z,100.00
2023-01-04T05:37:44.773Z,100.00
2023-01-04T05:42:47.977Z,100.00
2023-01-04T05:47:52.135Z,100.00
2023-01-04T05:52:56.647Z,100.00
2023-01-04T05:57:59.149Z,100.00
2023-01-04T06:03:09.131Z,100.00
2023-01-04T06:08:11.739Z,100.00
2023-01-04T06:13:14.087Z,100.00
2023-01-04T06:18:16.246Z,100.00
2023-01-04T06:23:18.458Z,100.00
2023-01-04T06:28:20.670Z,100.00
2023-01-04T06:33:22.927Z,100.00
2023-01-04T06:38:25.213Z,100.00
2023-01-04T06:43:27.374Z,100.00
2023-01-04T06:48:29.980Z,100.00
2023-01-04T06:53:32.233Z,100.00
2023-01-04T06:58:34.397Z,100.00
2023-01-04T07:03:36.750Z,100.00
2023-01-04T07:08:38.971Z,100.00
2023-01-04T07:13:41.191Z,100.00
2023-01-04T07:18:43.581Z,100.00
2023-01-04T07:23:50.047Z,100.00
2023-01-04T07:29:10.883Z,100.00
2023-01-04T07:34:14.544Z,100.00
2023-01-04T07:39:18.565Z,100.00
2023-01-04T07:44:22.544Z,100.00
2023-01-04T07:49:24.916Z,100.00
2023-01-04T07:54:27.278Z,100.00
2023-01-04T07:59:29.889Z,100.00
2023-01-04T08:04:35.182Z,100.00
2023-01-04T08:09:37.652Z,100.00
2023-01-04T08:14:40.096Z,100.00
2023-01-04T08:19:42.453Z,100.00
2023-01-04T08:24:44.762Z,100.00
2023-01-04T08:29:47.353Z,100.00
2023-01-04T08:34:49.470Z,100.00
2023-01-04T08:39:51.921Z,100.00
2023-01-04T08:44:58.959Z,100.00
2023-01-04T08:50:08.217Z,100.00
2023-01-04T08:55:15.185Z,100.00
2023-01-04T09:00:21.954Z,100.00
2023-01-04T09:05:26.313Z,100.00
2023-01-04T09:10:29.019Z,100.00
2023-01-04T09:15:32.556Z,100.00
2023-01-04T09:20:34.723Z,100.00
2023-01-04T09:25:40.322Z,100.00
2023-01-04T09:30:42.624Z,100.00
2023-01-04T09:35:44.785Z,100.00
2023-01-04T09:40:49.694Z,100.00
2023-01-04T09:45:56.268Z,100.00
2023-01-04T09:51:02.461Z,100.00
2023-01-04T09:56:21.474Z,100.00
2023-01-04T10:01:33.781Z,99.84
2023-01-04T10:06:37.974Z,99.17
2023-01-04T10:12:00.290Z,96.31
2023-01-04T10:17:28.143Z,97.64
2023-01-04T10:22:40.014Z,94.51
2023-01-04T10:27:57.580Z,92.92
2023-01-04T10:33:04.925Z,93.93
2023-01-04T10:38:24.448Z,94.53
2023-01-04T10:44:09.579Z,92.59
2023-01-04T10:49:30.005Z,90.57
2023-01-04T10:54:46.998Z,87.66
2023-01-04T11:00:00.738Z,84.19
2023-01-04T11:05:22.383Z,82.37
2023-01-04T11:10:31.897Z,81.48
2023-01-04T11:15:35.493Z,82.37
2023-01-04T11:20:38.567Z,83.25
2023-01-04T11:25:55.836Z,80.86
2023-01-04T11:31:05.119Z,81.19
2023-01-04T11:36:07.507Z,85.35
2023-01-04T11:41:17.296Z,87.84
2023-01-04T11:46:19.553Z,88.28
2023-01-04T11:51:27.868Z,89.98
2023-01-04T11:56:32.303Z,88.76
2023-01-04T12:01:38.059Z,89.92
2023-01-04T12:06:48.082Z,89.41
2023-01-04T12:11:54.580Z,89.11
2023-01-04T12:17:23.475Z,89.25
2023-01-04T12:22:34.499Z,90.20
2023-01-04T12:27:37.026Z,88.47
2023-01-04T12:32:41.572Z,89.75
2023-01-04T12:37:49.940Z,91.09
2023-01-04T12:43:26.315Z,89.99
2023-01-04T12:48:47.301Z,91.20
2023-01-04T12:53:57.304Z,90.84
2023-01-04T12:59:25.202Z,91.95
2023-01-04T13:04:41.464Z,91.21
2023-01-04T13:09:57.979Z,92.05
2023-01-04T13:15:08.563Z,91.78
2023-01-04T13:20:23.725Z,92.22
2023-01-04T13:25:26.963Z,92.90
2023-01-04T13:30:34.148Z,94.42
2023-01-04T13:35:36.725Z,93.85
2023-01-04T13:40:49.113Z,94.20
2023-01-04T13:46:08.477Z,97.54
2023-01-04T13:51:32.072Z,95.60
2023-01-04T13:56:38.218Z,95.09
2023-01-04T14:01:45.832Z,95.36
2023-01-04T14:06:51.205Z,97.16
2023-01-04T14:12:08.680Z,98.34
2023-01-04T14:17:16.650Z,98.16
2023-01-04T14:22:38.550Z,98.77
2023-01-04T14:27:45.845Z,99.14
2023-01-04T14:33:21.903Z,99.15
2023-01-04T14:38:24.365Z,100.00
2023-01-04T14:43:35.926Z,100.00
2023-01-04T14:48:38.294Z,100.00
2023-01-04T14:53:40.712Z,100.00
2023-01-04T14:58:43.817Z,100.00
2023-01-04T15:03:46.367Z,100.00
2023-01-04T15:08:49.175Z,100.00
2023-01-04T15:13:51.442Z,100.00
2023-01-04T15:18:53.642Z,100.00
2023-01-04T15:23:55.858Z,100.00
2023-01-04T15:28:58.247Z,100.00
2023-01-04T15:34:00.508Z,100.00
2023-01-04T15:39:02.998Z,100.00
2023-01-04T15:44:05.318Z,100.00
2023-01-04T15:49:13.351Z,100.00
2023-01-04T15:54:22.010Z,100.00
2023-01-04T15:59:24.968Z,100.00
2023-01-04T16:04:27.744Z,100.00
2023-01-04T16:09:31.257Z,100.00
2023-01-04T16:14:33.596Z,100.00
2023-01-04T16:19:35.765Z,100.00
2023-01-04T16:25:09.240Z,100.00
2023-01-04T16:30:01.106Z,100.00
2023-01-04T16:35:04.635Z,100.00
2023-01-04T16:40:08.968Z,100.00
2023-01-04T16:45:12.176Z,100.00
2023-01-04T16:50:14.521Z,100.00
2023-01-04T16:55:23.390Z,100.00
2023-01-04T17:00:26.314Z,100.00
2023-01-04T17:05:29.486Z,100.00
2023-01-04T17:10:31.933Z,100.00
2023-01-04T17:15:43.392Z,100.00
2023-01-04T17:20:53.963Z,100.00
2023-01-04T17:26:02.595Z,100.00
2023-01-04T17:31:16.938Z,100.00
2023-01-04T17:36:21.145Z,100.00
2023-01-04T17:41:25.316Z,100.00
2023-01-04T17:46:30.966Z,100.00
2023-01-04T17:51:34.253Z,100.00
2023-01-04T17:56:39.641Z,100.00
2023-01-04T18:01:41.900Z,100.00
2023-01-04T18:06:44.366Z,100.00
2023-01-04T18:11:46.614Z,100.00
2023-01-04T18:16:58.655Z,100.00
2023-01-04T18:22:01.752Z,100.00
2023-01-04T18:27:21.518Z,100.00
2023-01-04T18:32:26.654Z,100.00
2023-01-04T18:37:28.965Z,100.00
2023-01-04T18:42:32.063Z,100.00
2023-01-04T18:47:35.266Z,100.00
2023-01-04T18:52:37.515Z,100.00
2023-01-04T18:57:40.349Z,100.00
2023-01-04T19:02:42.843Z,100.00
2023-01-04T19:07:45.367Z,100.00
2023-01-04T19:12:47.802Z,100.00
2023-01-04T19:17:50.876Z,100.00
2023-01-04T19:22:53.108Z,100.00
2023-01-04T19:27:55.490Z,100.00
2023-01-04T19:32:57.869Z,100.00
2023-01-04T19:38:00.175Z,100.00
2023-01-04T19:43:02.671Z,100.00
2023-01-04T19:48:05.215Z,100.00
2023-01-04T19:53:07.603Z,100.00
2023-01-04T19:58:09.936Z,100.00
2023-01-04T20:03:12.249Z,100.00
2023-01-04T20:08:14.914Z,100.00
2023-01-04T20:13:17.306Z,100.00
2023-01-04T20:18:20.350Z,100.00
2023-01-04T20:23:22.934Z,100.00
2023-01-04T20:28:25.587Z,100.00
2023-01-04T20:33:28.012Z,100.00
2023-01-04T20:38:31.602Z,100.00
2023-01-04T20:43:37.575Z,100.00
2023-01-04T20:48:41.141Z,100.00
2023-01-04T20:53:43.700Z,100.00
2023-01-04T20:58:47.421Z,100.00
2023-01-04T21:03:50.217Z,100.00
2023-01-04T21:08:55.262Z,100.00
2023-01-04T21:13:57.817Z,100.00
2023-01-04T21:19:00.356Z,100.00
2023-01-04T21:24:02.720Z,100.00
2023-01-04T21:29:05.087Z,100.00
2023-01-04T21:34:13.040Z,100.00
2023-01-04T21:39:17.458Z,100.00
2023-01-04T21:44:20.070Z,100.00
2023-01-04T21:49:22.329Z,100.00
2023-01-04T21:54:24.793Z,100.00
2023-01-04T21:59:27.081Z,100.00
2023-01-04T22:04:29.350Z,100.00
2023-01-04T22:09:31.865Z,100.00
2023-01-04T22:14:35.085Z,100.00
2023-01-04T22:19:37.291Z,100.00
2023-01-04T22:24:39.480Z,100.00
2023-01-04T22:29:41.804Z,100.00
2023-01-04T22:34:44.032Z,100.00
2023-01-04T22:39:46.317Z,100.00
2023-01-04T22:44:48.647Z,100.00
2023-01-04T22:49:53.341Z,100.00
2023-01-04T22:54:55.868Z,100.00
2023-01-04T22:59:58.076Z,100.00
2023-01-04T23:05:00.330Z,100.00
2023-01-04T23:10:02.710Z,100.00
2023-01-04T23:15:05.358Z,100.00
2023-01-04T23:20:10.521Z,100.00
2023-01-04T23:25:13.167Z,100.00
2023-01-04T23:30:16.696Z,100.00
2023-01-04T23:35:18.978Z,100.00
2023-01-04T23:40:21.327Z,100.00
2023-01-04T23:45:24.226Z,100.00
2023-01-04T23:50:26.448Z,100.00
2023-01-04T23:55:28.954Z,100.00
